createdAt,value
2019-02-06T00:00:12.751Z,22.15
2019-02-06T00:01:12.738Z,22.14
2019-02-06T00:02:12.735Z,22.07
2019-02-06T00:03:12.735Z,22.06
2019-02-06T00:04:15.427Z,22.04
2019-02-06T00:05:14.269Z,21.92
2019-02-06T00:06:12.686Z,21.96
2019-02-06T00:07:12.684Z,21.97
2019-02-06T00:08:12.694Z,22.00
2019-02-06T00:09:12.659Z,21.94
2019-02-06T00:10:12.644Z,21.96
2019-02-06T00:11:12.641Z,21.89
2019-02-06T00:12:12.625Z,21.91
2019-02-06T00:13:12.625Z,21.88
2019-02-06T00:14:12.640Z,21.69
2019-02-06T00:15:12.591Z,21.69
2019-02-06T00:16:12.584Z,21.62
2019-02-06T00:17:12.578Z,21.60
2019-02-06T00:18:12.599Z,21.45
2019-02-06T00:19:12.553Z,21.41
2019-02-06T00:20:12.545Z,21.30
2019-02-06T00:21:12.534Z,21.25
2019-02-06T00:22:12.524Z,21.22
2019-02-06T00:23:12.537Z,21.13
2019-02-06T00:24:12.562Z,21.05
2019-02-06T00:25:12.542Z,21.04
2019-02-06T00:26:12.479Z,20.96
2019-02-06T00:27:12.471Z,20.89
2019-02-06T00:28:12.457Z,20.93
2019-02-06T00:29:12.464Z,20.89
2019-02-06T00:30:12.433Z,20.83
2019-02-06T00:31:12.439Z,20.85
2019-02-06T00:32:12.416Z,20.96
2019-02-06T00:33:12.410Z,20.98
2019-02-06T00:34:12.415Z,21.07
2019-02-06T00:35:12.385Z,21.13
2019-02-06T00:36:12.382Z,21.14
2019-02-06T00:37:12.360Z,21.25
2019-02-06T00:38:12.353Z,21.37
2019-02-06T00:39:12.353Z,21.50
2019-02-06T00:40:12.332Z,21.53
2019-02-06T00:41:12.319Z,21.63
2019-02-06T00:42:12.312Z,21.65
2019-02-06T00:43:12.353Z,21.81
2019-02-06T00:44:12.305Z,21.89
2019-02-06T00:45:12.285Z,21.92
2019-02-06T00:46:12.267Z,22.04
2019-02-06T00:47:12.265Z,22.04
2019-02-06T00:48:12.248Z,22.10
2019-02-06T00:49:12.250Z,22.15
2019-02-06T00:50:12.223Z,22.25
2019-02-06T00:51:12.219Z,22.31
2019-02-06T00:52:12.209Z,22.25
2019-02-06T00:53:12.194Z,22.37
2019-02-06T00:54:12.201Z,22.36
2019-02-06T00:55:12.170Z,22.43
2019-02-06T00:56:12.161Z,22.34
2019-02-06T00:57:12.149Z,22.34
2019-02-06T00:58:12.145Z,22.37
2019-02-06T00:59:12.145Z,22.37
2019-02-06T01:00:12.124Z,22.30
2019-02-06T01:01:12.111Z,22.26
2019-02-06T01:02:12.100Z,22.26
2019-02-06T01:03:12.094Z,22.21
2019-02-06T01:04:12.107Z,22.23
2019-02-06T01:05:12.065Z,22.10
2019-02-06T01:06:12.095Z,22.01
2019-02-06T01:07:12.143Z,22.04
2019-02-06T01:08:12.040Z,21.89
2019-02-06T01:09:12.045Z,21.88
2019-02-06T01:10:12.021Z,21.84
2019-02-06T01:11:12.021Z,21.78
2019-02-06T01:12:12.002Z,21.77
2019-02-06T01:13:11.993Z,21.63
2019-02-06T01:14:11.999Z,21.60
2019-02-06T01:15:11.970Z,21.65
2019-02-06T01:16:11.961Z,21.60
2019-02-06T01:17:11.951Z,21.68
2019-02-06T01:18:11.948Z,21.63
2019-02-06T01:19:11.941Z,21.63
2019-02-06T01:20:11.932Z,21.60
2019-02-06T01:21:11.909Z,21.62
2019-02-06T01:22:11.896Z,21.60
2019-02-06T01:23:11.899Z,21.50
2019-02-06T01:24:11.903Z,21.45
2019-02-06T01:25:11.871Z,21.59
2019-02-06T01:26:11.861Z,21.56
2019-02-06T01:27:11.849Z,21.50
2019-02-06T01:28:11.836Z,21.58
2019-02-06T01:29:11.852Z,21.68
2019-02-06T01:30:11.822Z,21.51
2019-02-06T01:31:11.803Z,21.62
2019-02-06T01:32:11.913Z,21.53
2019-02-06T01:33:11.795Z,21.62
2019-02-06T01:34:11.776Z,21.59
2019-02-06T01:35:11.784Z,21.51
2019-02-06T01:36:11.801Z,21.51
2019-02-06T01:39:28.467Z,21.37
2019-02-06T01:40:27.460Z,21.35
2019-02-06T01:41:27.442Z,21.37
2019-02-06T01:42:27.429Z,21.32
2019-02-06T01:43:27.421Z,21.33
2019-02-06T01:44:27.408Z,21.40
2019-02-06T01:45:27.409Z,21.35
2019-02-06T01:46:27.388Z,21.38
2019-02-06T01:47:27.374Z,21.32
2019-02-06T01:48:27.362Z,21.37
2019-02-06T01:49:27.352Z,21.38
2019-02-06T01:50:27.361Z,21.33
2019-02-06T01:51:27.334Z,21.37
2019-02-06T01:52:27.322Z,21.32
2019-02-06T01:53:27.310Z,21.38
2019-02-06T01:54:27.308Z,21.30
2019-02-06T01:55:27.322Z,21.38
2019-02-06T01:56:27.282Z,21.33
2019-02-06T01:57:27.272Z,21.37
2019-02-06T01:58:27.262Z,21.35
2019-02-06T01:59:27.252Z,21.33
2019-02-06T02:00:27.246Z,21.37
2019-02-06T02:01:27.243Z,21.33
2019-02-06T02:02:27.217Z,21.32
2019-02-06T02:03:27.204Z,21.29
2019-02-06T02:04:27.196Z,21.23
2019-02-06T02:05:27.191Z,21.26
2019-02-06T02:06:27.193Z,21.23
2019-02-06T02:07:27.164Z,21.25
2019-02-06T02:08:27.156Z,21.22
2019-02-06T02:09:27.141Z,21.22
2019-02-06T02:10:27.131Z,21.23
2019-02-06T02:11:27.136Z,21.25
2019-02-06T02:12:27.114Z,21.22
2019-02-06T02:13:27.103Z,21.22
2019-02-06T02:14:27.091Z,21.23
2019-02-06T02:15:27.083Z,21.25
2019-02-06T02:16:27.089Z,21.29
2019-02-06T02:17:27.055Z,21.25
2019-02-06T02:18:27.053Z,21.30
2019-02-06T02:19:27.036Z,21.26
2019-02-06T02:20:27.033Z,21.29
2019-02-06T02:21:27.047Z,21.26
2019-02-06T02:22:27.007Z,21.29
2019-02-06T02:23:26.993Z,21.23
2019-02-06T02:24:26.987Z,21.22
2019-02-06T02:25:26.970Z,21.25
2019-02-06T02:26:26.981Z,21.23
2019-02-06T02:27:26.960Z,21.15
2019-02-06T02:28:26.944Z,21.17
2019-02-06T02:29:26.938Z,21.22
2019-02-06T02:30:26.929Z,21.13
2019-02-06T02:31:26.942Z,21.10
2019-02-06T02:32:26.903Z,21.11
2019-02-06T02:33:26.890Z,21.11
2019-02-06T02:34:26.878Z,21.03
2019-02-06T02:35:26.871Z,21.03
2019-02-06T02:36:26.883Z,20.88
2019-02-06T02:37:26.856Z,20.85
2019-02-06T02:38:26.873Z,20.95
2019-02-06T02:39:26.828Z,20.83
2019-02-06T02:40:26.816Z,20.83
2019-02-06T02:41:26.824Z,20.82
2019-02-06T02:42:26.800Z,20.82
2019-02-06T02:43:26.788Z,20.73
2019-02-06T02:44:26.779Z,20.71
2019-02-06T02:45:26.767Z,20.70
2019-02-06T02:46:26.785Z,20.66
2019-02-06T02:47:26.745Z,20.56
2019-02-06T02:48:26.762Z,20.55
2019-02-06T02:49:26.722Z,20.52
2019-02-06T02:50:26.715Z,20.48
2019-02-06T02:51:26.706Z,20.44
2019-02-06T02:52:26.708Z,20.40
2019-02-06T02:53:26.683Z,20.49
2019-02-06T02:54:26.668Z,20.36
2019-02-06T02:55:26.662Z,20.39
2019-02-06T02:56:26.651Z,20.50
2019-02-06T02:57:26.653Z,20.60
2019-02-06T02:58:26.629Z,20.77
2019-02-06T02:59:26.626Z,20.80
2019-02-06T03:00:26.608Z,20.89
2019-02-06T03:01:26.598Z,20.93
2019-02-06T03:02:26.601Z,21.19
2019-02-06T03:03:26.572Z,21.26
2019-02-06T03:04:26.564Z,21.35
2019-02-06T03:05:26.553Z,21.51
2019-02-06T03:06:28.512Z,21.51
2019-02-06T03:07:26.551Z,21.44
2019-02-06T03:08:26.524Z,21.56
2019-02-06T03:09:26.515Z,21.50
2019-02-06T03:10:26.507Z,21.60
2019-02-06T03:11:26.651Z,21.65
2019-02-06T03:12:26.503Z,21.72
2019-02-06T03:13:26.473Z,21.74
2019-02-06T03:14:26.462Z,21.77
2019-02-06T03:15:26.459Z,21.89
2019-02-06T03:16:26.443Z,21.96
2019-02-06T03:17:26.441Z,22.01
2019-02-06T03:18:26.422Z,22.08
2019-02-06T03:19:26.412Z,22.10
2019-02-06T03:20:26.416Z,22.10
2019-02-06T03:21:26.390Z,22.07
2019-02-06T03:22:26.397Z,22.06
2019-02-06T03:23:26.375Z,22.00
2019-02-06T03:24:26.357Z,21.92
2019-02-06T03:25:26.348Z,21.96
2019-02-06T03:26:26.338Z,22.00
2019-02-06T03:27:26.358Z,22.03
2019-02-06T03:28:26.322Z,22.01
2019-02-06T03:29:26.304Z,22.03
2019-02-06T03:30:26.299Z,21.94
2019-02-06T03:31:26.284Z,21.96
2019-02-06T03:32:26.328Z,21.91
2019-02-06T03:33:26.279Z,21.92
2019-02-06T03:34:26.255Z,22.00
2019-02-06T03:35:26.243Z,21.99
2019-02-06T03:36:26.230Z,21.97
2019-02-06T03:37:26.223Z,21.99
2019-02-06T03:38:26.260Z,21.94
2019-02-06T03:39:26.202Z,21.89
2019-02-06T03:40:26.193Z,21.96
2019-02-06T03:41:26.175Z,21.94
2019-02-06T03:42:26.189Z,21.80
2019-02-06T03:43:26.176Z,21.77
2019-02-06T03:44:26.149Z,21.77
2019-02-06T03:45:26.146Z,21.72
2019-02-06T03:46:26.129Z,21.75
2019-02-06T03:47:26.112Z,21.70
2019-02-06T03:48:26.124Z,21.75
2019-02-06T03:49:26.098Z,21.70
2019-02-06T03:50:26.084Z,21.70
2019-02-06T03:51:26.075Z,21.66
2019-02-06T03:52:26.061Z,21.70
2019-02-06T03:53:26.071Z,21.78
2019-02-06T03:54:26.044Z,21.63
2019-02-06T03:55:26.032Z,21.68
2019-02-06T03:56:26.021Z,21.74
2019-02-06T03:57:26.020Z,21.66
2019-02-06T03:58:26.016Z,21.72
2019-02-06T03:59:25.999Z,21.66
2019-02-06T04:00:25.980Z,21.68
2019-02-06T04:01:25.969Z,21.63
2019-02-06T04:02:25.987Z,21.62
2019-02-06T04:03:25.964Z,21.63
2019-02-06T04:04:25.952Z,21.50
2019-02-06T04:05:25.927Z,21.66
2019-02-06T04:06:25.914Z,21.53
2019-02-06T04:07:25.904Z,21.58
2019-02-06T04:08:25.925Z,21.50
2019-02-06T04:09:25.883Z,21.45
2019-02-06T04:10:25.872Z,21.50
2019-02-06T04:11:25.881Z,21.50
2019-02-06T04:12:25.852Z,21.43
2019-02-06T04:13:25.853Z,21.50
2019-02-06T04:14:25.844Z,21.38
2019-02-06T04:15:25.824Z,21.38
2019-02-06T04:16:25.885Z,21.40
2019-02-06T04:17:25.801Z,21.41
2019-02-06T04:18:25.791Z,21.37
2019-02-06T04:19:25.820Z,21.33
2019-02-06T04:20:25.769Z,21.28
2019-02-06T04:21:25.760Z,21.22
2019-02-06T04:22:25.748Z,21.19
2019-02-06T04:23:25.739Z,21.20
2019-02-06T04:24:25.744Z,21.15
2019-02-06T04:25:25.725Z,21.05
2019-02-06T04:26:25.705Z,21.07
2019-02-06T04:27:25.699Z,21.10
2019-02-06T04:28:25.686Z,21.00
2019-02-06T04:29:25.691Z,21.08
2019-02-06T04:30:25.667Z,20.95
2019-02-06T04:31:25.661Z,21.03
2019-02-06T04:32:25.677Z,20.92
2019-02-06T04:33:25.635Z,21.00
2019-02-06T04:34:25.651Z,21.03
2019-02-06T04:35:25.611Z,20.95
2019-02-06T04:36:25.606Z,21.04
2019-02-06T04:37:25.591Z,20.93
2019-02-06T04:38:25.578Z,21.00
2019-02-06T04:39:25.601Z,21.07
2019-02-06T04:40:25.556Z,21.04
2019-02-06T04:41:25.556Z,21.03
2019-02-06T04:42:25.542Z,21.08
2019-02-06T04:43:25.531Z,21.13
2019-02-06T04:44:25.564Z,21.15
2019-02-06T04:45:25.512Z,21.17
2019-02-06T04:46:25.495Z,21.11
2019-02-06T04:47:25.497Z,21.08
2019-02-06T04:48:25.480Z,21.05
2019-02-06T04:49:25.483Z,21.01
2019-02-06T04:50:25.458Z,20.98
2019-02-06T04:51:25.443Z,20.95
2019-02-06T04:52:25.433Z,20.98
2019-02-06T04:53:25.459Z,20.90
2019-02-06T04:54:25.449Z,20.88
2019-02-06T04:55:25.401Z,20.85
2019-02-06T04:56:25.391Z,20.78
2019-02-06T04:57:25.383Z,20.77
2019-02-06T04:58:25.372Z,20.88
2019-02-06T04:59:25.364Z,20.77
2019-02-06T05:00:25.391Z,20.75
2019-02-06T05:01:25.338Z,20.75
2019-02-06T05:02:25.330Z,20.67
2019-02-06T05:03:25.931Z,20.64
2019-02-06T05:04:25.322Z,20.64
2019-02-06T05:05:25.321Z,20.59
2019-02-06T05:06:25.293Z,20.66
2019-02-06T05:07:25.303Z,20.56
2019-02-06T05:08:25.270Z,20.60
2019-02-06T05:09:25.259Z,20.64
2019-02-06T05:10:25.270Z,20.59
2019-02-06T05:11:25.234Z,20.64
2019-02-06T05:12:25.227Z,20.64
2019-02-06T05:13:25.222Z,20.56
2019-02-06T05:14:25.205Z,20.68
2019-02-06T05:15:25.221Z,20.66
2019-02-06T05:16:25.186Z,20.59
2019-02-06T05:17:25.170Z,20.66
2019-02-06T05:18:25.166Z,20.71
2019-02-06T05:19:25.164Z,20.66
2019-02-06T05:20:25.156Z,20.82
2019-02-06T05:21:25.132Z,20.77
2019-02-06T05:22:25.122Z,20.83
2019-02-06T05:23:25.118Z,20.88
2019-02-06T05:24:25.103Z,20.78
2019-02-06T05:25:25.119Z,20.92
2019-02-06T05:26:25.075Z,20.93
2019-02-06T05:27:25.068Z,20.96
2019-02-06T05:28:25.070Z,20.96
2019-02-06T05:29:25.045Z,21.01
2019-02-06T05:30:25.057Z,21.00
2019-02-06T05:31:25.029Z,21.14
2019-02-06T05:32:25.026Z,21.22
2019-02-06T05:33:25.005Z,21.25
2019-02-06T05:34:25.001Z,21.29
2019-02-06T05:35:25.007Z,21.33
2019-02-06T05:36:24.987Z,21.50
2019-02-06T05:37:32.241Z,21.40
2019-02-06T05:38:25.967Z,21.43
2019-02-06T05:39:24.947Z,21.40
2019-02-06T05:40:24.948Z,21.40
2019-02-06T05:41:24.943Z,21.38
2019-02-06T05:42:24.915Z,21.40
2019-02-06T05:43:24.899Z,21.41
2019-02-06T05:44:24.890Z,21.38
2019-02-06T05:45:24.880Z,21.47
2019-02-06T05:46:24.886Z,21.38
2019-02-06T05:47:24.882Z,21.32
2019-02-06T05:48:24.851Z,21.35
2019-02-06T05:49:24.843Z,21.25
2019-02-06T05:50:24.825Z,21.28
2019-02-06T05:51:24.842Z,21.22
2019-02-06T05:52:24.814Z,21.22
2019-02-06T05:53:24.800Z,21.15
2019-02-06T05:54:24.795Z,21.10
2019-02-06T05:55:24.774Z,21.05
2019-02-06T05:56:24.785Z,21.04
2019-02-06T05:57:24.759Z,21.19
2019-02-06T05:58:24.755Z,21.25
2019-02-06T05:59:24.777Z,21.25
2019-02-06T06:00:24.725Z,21.37
2019-02-06T06:01:24.738Z,21.26
2019-02-06T06:02:24.701Z,21.14
2019-02-06T06:03:24.701Z,21.04
2019-02-06T06:04:24.679Z,20.98
2019-02-06T06:05:24.675Z,20.90
2019-02-06T06:06:24.707Z,20.75
2019-02-06T06:07:24.657Z,20.88
2019-02-06T06:08:24.642Z,20.75
2019-02-06T06:09:24.660Z,20.74
2019-02-06T06:10:24.645Z,20.75
2019-02-06T06:11:24.649Z,20.60
2019-02-06T06:12:24.622Z,20.59
2019-02-06T06:13:24.587Z,20.55
2019-02-06T06:14:24.585Z,20.59
2019-02-06T06:15:24.590Z,20.58
2019-02-06T06:16:24.594Z,20.53
2019-02-06T06:17:24.549Z,20.44
2019-02-06T06:18:24.537Z,20.55
2019-02-06T06:19:24.529Z,20.49
2019-02-06T06:20:24.516Z,20.46
2019-02-06T06:21:24.507Z,20.32
2019-02-06T06:22:24.508Z,20.40
2019-02-06T06:23:24.499Z,20.40
2019-02-06T06:24:24.506Z,20.44
2019-02-06T06:25:24.471Z,20.46
2019-02-06T06:26:24.456Z,20.44
2019-02-06T06:27:24.452Z,20.39
2019-02-06T06:28:24.430Z,20.39
2019-02-06T06:29:24.426Z,20.37
2019-02-06T06:30:24.418Z,20.44
2019-02-06T06:31:24.403Z,20.49
2019-02-06T06:32:24.404Z,20.36
2019-02-06T06:33:24.408Z,20.26
2019-02-06T06:34:24.365Z,20.33
2019-02-06T06:35:24.372Z,20.29
2019-02-06T06:36:24.353Z,20.24
2019-02-06T06:37:24.387Z,20.17
2019-02-06T06:38:24.329Z,20.19
2019-02-06T06:39:24.327Z,20.18
2019-02-06T06:40:24.310Z,20.02
2019-02-06T06:41:24.293Z,20.03
2019-02-06T06:42:24.412Z,19.87
2019-02-06T06:43:24.275Z,19.97
2019-02-06T06:44:24.266Z,19.87
2019-02-06T06:45:24.258Z,19.89
2019-02-06T06:46:24.245Z,19.79
2019-02-06T06:47:24.255Z,19.85
2019-02-06T06:48:24.240Z,19.81
2019-02-06T06:49:24.220Z,19.74
2019-02-06T06:50:24.205Z,19.72
2019-02-06T06:51:24.198Z,19.74
2019-02-06T06:52:24.205Z,19.72
2019-02-06T06:53:24.169Z,19.63
2019-02-06T06:54:24.163Z,19.60
2019-02-06T06:55:24.145Z,19.64
2019-02-06T06:56:24.136Z,19.57
2019-02-06T06:57:24.143Z,19.59
2019-02-06T06:58:24.134Z,19.55
2019-02-06T06:59:24.118Z,19.57
2019-02-06T07:00:24.098Z,19.60
2019-02-06T07:01:24.088Z,19.57
2019-02-06T07:02:24.114Z,19.60
2019-02-06T07:03:24.067Z,19.56
2019-02-06T07:04:24.060Z,19.56
2019-02-06T07:05:24.060Z,19.56
2019-02-06T07:06:24.042Z,19.55
2019-02-06T07:07:24.053Z,19.52
2019-02-06T07:08:24.013Z,19.60
2019-02-06T07:09:24.006Z,19.62
2019-02-06T07:10:23.992Z,19.63
2019-02-06T07:11:23.989Z,19.59
2019-02-06T07:12:23.987Z,19.72
2019-02-06T07:13:23.966Z,19.75
2019-02-06T07:14:23.946Z,19.87
2019-02-06T07:15:23.948Z,19.92
2019-02-06T07:16:23.931Z,19.94
2019-02-06T07:17:23.951Z,20.03
2019-02-06T07:18:23.908Z,20.02
2019-02-06T07:19:23.899Z,20.07
2019-02-06T07:20:23.901Z,20.10
2019-02-06T07:21:23.874Z,20.18
2019-02-06T07:22:23.876Z,20.14
2019-02-06T07:23:23.880Z,20.29
2019-02-06T07:24:23.852Z,20.29
2019-02-06T07:25:23.835Z,20.33
2019-02-06T07:26:23.829Z,20.49
2019-02-06T07:27:23.819Z,20.49
2019-02-06T07:28:23.819Z,20.55
2019-02-06T07:29:23.797Z,20.63
2019-02-06T07:30:23.782Z,20.64
2019-02-06T07:31:23.776Z,20.70
2019-02-06T07:32:23.767Z,20.67
2019-02-06T07:33:23.772Z,20.75
2019-02-06T07:34:23.745Z,20.56
2019-02-06T07:35:23.731Z,20.56
2019-02-06T07:36:23.722Z,20.67
2019-02-06T07:37:23.714Z,20.66
2019-02-06T07:38:24.606Z,20.56
2019-02-06T07:39:23.688Z,20.59
2019-02-06T07:40:23.677Z,20.56
2019-02-06T07:41:23.670Z,20.59
2019-02-06T07:42:23.658Z,20.56
2019-02-06T07:43:23.662Z,20.60
2019-02-06T07:44:23.649Z,20.56
2019-02-06T07:45:23.631Z,20.53
2019-02-06T07:46:23.610Z,20.52
2019-02-06T07:47:23.606Z,20.53
2019-02-06T07:48:23.627Z,20.52
2019-02-06T07:49:23.585Z,20.39
2019-02-06T07:50:23.575Z,20.48
2019-02-06T07:51:23.559Z,20.46
2019-02-06T07:52:23.555Z,20.48
2019-02-06T07:53:23.644Z,20.44
2019-02-06T07:54:23.533Z,20.44
2019-02-06T07:55:23.619Z,20.37
2019-02-06T07:56:23.509Z,20.37
2019-02-06T07:57:23.501Z,20.42
2019-02-06T07:58:23.487Z,20.36
2019-02-06T07:59:23.495Z,20.36
2019-02-06T08:00:23.463Z,20.44
2019-02-06T08:01:23.462Z,20.36
2019-02-06T08:02:23.448Z,20.36
2019-02-06T08:03:23.441Z,20.36
2019-02-06T08:04:23.438Z,20.34
2019-02-06T08:05:23.415Z,20.39
2019-02-06T08:06:23.405Z,20.37
2019-02-06T08:07:23.393Z,20.37
2019-02-06T08:08:35.282Z,20.36
2019-02-06T08:09:24.437Z,20.29
2019-02-06T08:10:23.361Z,20.34
2019-02-06T08:11:23.349Z,20.26
2019-02-06T08:12:23.348Z,20.33
2019-02-06T08:13:23.328Z,20.33
2019-02-06T08:14:23.352Z,20.33
2019-02-06T08:15:23.309Z,20.39
2019-02-06T08:16:23.302Z,20.33
2019-02-06T08:17:23.327Z,20.33
2019-02-06T08:18:23.277Z,20.26
2019-02-06T08:19:23.290Z,20.34
2019-02-06T08:20:23.257Z,20.39
2019-02-06T08:21:23.251Z,20.34
2019-02-06T08:22:23.238Z,20.33
2019-02-06T08:23:23.230Z,20.39
2019-02-06T08:24:23.233Z,20.32
2019-02-06T08:25:23.209Z,20.33
2019-02-06T08:26:23.291Z,20.34
2019-02-06T08:27:26.228Z,20.37
2019-02-06T08:28:23.187Z,20.39
2019-02-06T08:29:23.187Z,20.34
2019-02-06T08:30:23.152Z,20.37
2019-02-06T08:31:23.138Z,20.36
2019-02-06T08:32:23.172Z,20.36
2019-02-06T08:33:23.120Z,20.46
2019-02-06T08:34:23.109Z,20.46
2019-02-06T08:35:23.117Z,20.42
2019-02-06T08:36:23.104Z,20.49
2019-02-06T08:37:23.078Z,20.49
2019-02-06T08:38:23.070Z,20.49
2019-02-06T08:39:23.058Z,20.42
2019-02-06T08:40:23.077Z,20.48
2019-02-06T08:41:23.039Z,20.49
2019-02-06T08:42:23.027Z,20.36
2019-02-06T08:43:23.020Z,20.34
2019-02-06T08:44:23.005Z,20.30
2019-02-06T08:45:23.016Z,20.21
2019-02-06T08:46:22.982Z,20.27
2019-02-06T08:47:22.975Z,20.24
2019-02-06T08:48:22.962Z,20.29
2019-02-06T08:49:22.947Z,20.27
2019-02-06T08:50:22.963Z,20.22
2019-02-06T08:51:22.933Z,20.21
2019-02-06T08:52:22.919Z,20.17
2019-02-06T08:53:22.916Z,20.15
2019-02-06T08:54:22.898Z,20.18
2019-02-06T08:55:22.906Z,20.08
2019-02-06T08:56:22.887Z,20.07
2019-02-06T08:57:22.865Z,20.04
2019-02-06T08:58:22.861Z,20.07
2019-02-06T08:59:22.917Z,19.97
2019-02-06T09:00:22.854Z,19.92
2019-02-06T09:01:22.826Z,19.90
2019-02-06T09:02:22.816Z,20.03
2019-02-06T09:03:22.812Z,19.99
2019-02-06T09:04:22.797Z,20.00
2019-02-06T09:05:22.799Z,19.97
2019-02-06T09:06:22.770Z,19.97
2019-02-06T09:07:22.765Z,20.02
2019-02-06T09:08:22.753Z,19.97
2019-02-06T09:09:22.749Z,19.96
2019-02-06T09:10:22.763Z,20.04
2019-02-06T09:11:22.720Z,20.07
2019-02-06T09:12:22.719Z,20.07
2019-02-06T09:13:22.700Z,20.03
2019-02-06T09:14:22.695Z,20.14
2019-02-06T09:15:22.698Z,20.14
2019-02-06T09:16:22.682Z,20.24
2019-02-06T09:17:22.675Z,20.22
2019-02-06T09:18:22.647Z,20.24
2019-02-06T09:19:22.641Z,20.27
2019-02-06T09:20:22.631Z,20.29
2019-02-06T09:21:22.633Z,20.27
2019-02-06T09:22:22.610Z,20.32
2019-02-06T09:23:22.693Z,20.39
2019-02-06T09:24:22.689Z,20.37
2019-02-06T09:25:22.572Z,20.49
2019-02-06T09:26:22.631Z,20.39
2019-02-06T09:27:22.557Z,20.46
2019-02-06T09:28:22.541Z,20.46
2019-02-06T09:29:22.536Z,20.53
2019-02-06T09:30:22.526Z,20.49
2019-02-06T09:31:22.541Z,20.44
2019-02-06T09:32:22.505Z,20.56
2019-02-06T09:33:22.488Z,20.52
2019-02-06T09:34:22.482Z,20.48
2019-02-06T09:35:22.474Z,20.50
2019-02-06T09:36:22.485Z,20.49
2019-02-06T09:37:22.448Z,20.49
2019-02-06T09:38:22.436Z,20.56
2019-02-06T09:39:22.429Z,20.46
2019-02-06T09:40:22.497Z,20.48
2019-02-06T09:41:22.428Z,20.48
2019-02-06T09:42:22.397Z,20.60
2019-02-06T09:43:22.392Z,20.60
2019-02-06T09:44:22.376Z,20.74
2019-02-06T09:45:22.365Z,20.66
2019-02-06T09:46:22.385Z,20.71
2019-02-06T09:47:22.342Z,20.67
2019-02-06T09:48:22.352Z,20.75
2019-02-06T09:49:22.329Z,20.82
2019-02-06T09:50:22.328Z,20.80
2019-02-06T09:51:22.308Z,20.75
2019-02-06T09:52:25.636Z,20.86
2019-02-06T09:53:23.283Z,20.86
2019-02-06T09:54:22.271Z,20.90
2019-02-06T09:55:22.264Z,20.86
2019-02-06T09:56:22.255Z,20.90
2019-02-06T09:57:22.261Z,20.98
2019-02-06T09:58:22.228Z,20.95
2019-02-06T09:59:22.221Z,21.03
2019-02-06T10:00:22.208Z,20.93
2019-02-06T10:01:22.254Z,21.01
2019-02-06T10:02:22.204Z,20.98
2019-02-06T10:03:22.179Z,21.07
2019-02-06T10:04:22.169Z,21.08
2019-02-06T10:05:22.157Z,21.07
2019-02-06T10:06:22.153Z,21.05
2019-02-06T10:07:22.155Z,20.96
2019-02-06T10:08:22.128Z,20.98
2019-02-06T10:09:23.170Z,20.90
2019-02-06T10:10:22.109Z,20.95
2019-02-06T10:11:22.151Z,21.05
2019-02-06T10:12:22.102Z,20.95
2019-02-06T10:13:22.086Z,20.89
2019-02-06T10:14:22.073Z,20.88
2019-02-06T10:15:22.052Z,20.90
2019-02-06T10:16:22.042Z,20.98
2019-02-06T10:17:22.049Z,20.96
2019-02-06T10:18:22.023Z,21.01
2019-02-06T10:19:22.012Z,20.90
2019-02-06T10:20:22.001Z,20.98
2019-02-06T10:21:21.989Z,21.03
2019-02-06T10:22:22.002Z,20.98
2019-02-06T10:23:21.971Z,21.03
2019-02-06T10:24:21.956Z,21.01
2019-02-06T10:25:21.950Z,21.01
2019-02-06T10:26:21.938Z,21.03
2019-02-06T10:27:24.005Z,20.93
2019-02-06T10:28:24.149Z,20.95
2019-02-06T10:29:21.914Z,21.01
2019-02-06T10:30:21.908Z,21.01
2019-02-06T10:31:21.904Z,21.08
2019-02-06T10:32:21.887Z,21.10
2019-02-06T10:33:21.868Z,21.15
2019-02-06T10:34:21.849Z,21.15
2019-02-06T10:35:21.842Z,21.17
2019-02-06T10:36:21.845Z,21.11
2019-02-06T10:37:21.845Z,21.11
2019-02-06T10:38:21.811Z,21.17
2019-02-06T10:39:21.799Z,21.26
2019-02-06T10:40:21.786Z,21.23
2019-02-06T10:41:21.780Z,21.33
2019-02-06T10:42:21.771Z,21.32
2019-02-06T10:43:31.507Z,21.44
2019-02-06T10:44:22.748Z,21.47
2019-02-06T10:45:21.739Z,21.53
2019-02-06T10:46:21.729Z,21.60
2019-02-06T10:47:21.720Z,21.66
2019-02-06T10:48:21.720Z,21.51
2019-02-06T10:49:21.702Z,21.60
2019-02-06T10:50:21.690Z,21.53
2019-02-06T10:51:21.673Z,21.50
2019-02-06T10:52:21.751Z,21.53
2019-02-06T10:53:21.664Z,21.53
2019-02-06T10:54:21.647Z,21.59
2019-02-06T10:55:21.640Z,21.68
2019-02-06T10:56:21.626Z,21.53
2019-02-06T10:57:21.619Z,21.56
2019-02-06T10:58:21.620Z,21.54
2019-02-06T10:59:21.600Z,21.66
2019-02-06T11:00:21.581Z,21.78
2019-02-06T11:01:21.573Z,21.75
2019-02-06T11:02:21.562Z,21.75
2019-02-06T11:03:21.567Z,21.70
2019-02-06T11:04:21.541Z,21.77
2019-02-06T11:05:21.534Z,21.69
2019-02-06T11:06:21.526Z,21.75
2019-02-06T11:07:21.532Z,21.72
2019-02-06T11:08:21.516Z,21.70
2019-02-06T11:09:21.497Z,21.69
2019-02-06T11:10:21.472Z,21.60
2019-02-06T11:11:21.481Z,21.65
2019-02-06T11:12:24.526Z,21.51
2019-02-06T11:13:21.472Z,21.62
2019-02-06T11:14:21.437Z,21.58
2019-02-06T11:15:21.431Z,21.47
2019-02-06T11:16:21.484Z,21.43
2019-02-06T11:17:21.407Z,21.37
2019-02-06T11:18:21.414Z,21.32
2019-02-06T11:19:21.385Z,21.28
2019-02-06T11:20:21.378Z,21.19
2019-02-06T11:21:21.362Z,21.20
2019-02-06T11:22:21.356Z,21.17
2019-02-06T11:23:21.363Z,21.08
2019-02-06T11:24:21.330Z,21.10
2019-02-06T11:25:21.321Z,21.01
2019-02-06T11:26:21.308Z,20.93
2019-02-06T11:27:21.304Z,20.92
2019-02-06T11:28:21.307Z,21.00
2019-02-06T11:29:21.280Z,20.92
2019-02-06T11:30:21.273Z,20.89
2019-02-06T11:31:21.262Z,20.89
2019-02-06T11:32:21.249Z,20.96
2019-02-06T11:33:21.260Z,20.96
2019-02-06T11:34:21.226Z,21.00
2019-02-06T11:35:21.221Z,20.95
2019-02-06T11:36:24.297Z,21.03
2019-02-06T11:37:21.210Z,20.93
2019-02-06T11:38:21.204Z,21.01
2019-02-06T11:39:21.176Z,21.07
2019-02-06T11:40:21.161Z,21.05
2019-02-06T11:41:21.158Z,21.23
2019-02-06T11:42:21.142Z,21.20
2019-02-06T11:43:21.147Z,21.25
2019-02-06T11:44:21.121Z,21.35
2019-02-06T11:45:21.114Z,21.32
2019-02-06T11:46:21.105Z,21.32
2019-02-06T11:47:21.093Z,21.32
2019-02-06T11:48:21.096Z,21.37
2019-02-06T11:49:21.067Z,21.33
2019-02-06T11:50:21.076Z,21.44
2019-02-06T11:51:21.050Z,21.51
2019-02-06T11:52:21.040Z,21.54
2019-02-06T11:53:21.056Z,21.47
2019-02-06T11:54:21.022Z,21.54
2019-02-06T11:55:21.006Z,21.50
2019-02-06T11:56:20.996Z,21.53
2019-02-06T11:57:24.015Z,21.63
2019-02-06T11:58:20.973Z,21.53
2019-02-06T11:59:20.978Z,21.60
2019-02-06T12:00:20.950Z,21.54
2019-02-06T12:01:20.946Z,21.62
2019-02-06T12:02:20.930Z,21.68
2019-02-06T12:03:22.319Z,21.62
2019-02-06T12:04:20.925Z,21.68
2019-02-06T12:05:20.901Z,21.75
2019-02-06T12:06:20.890Z,21.75
2019-02-06T12:07:20.888Z,21.80
2019-02-06T12:08:20.884Z,21.65
2019-02-06T12:09:20.870Z,21.63
2019-02-06T12:10:20.849Z,21.72
2019-02-06T12:11:20.834Z,21.72
2019-02-06T12:12:20.826Z,21.70
2019-02-06T12:13:20.818Z,21.69
2019-02-06T12:14:20.826Z,21.80
2019-02-06T12:15:20.807Z,21.80
2019-02-06T12:16:20.939Z,21.81
2019-02-06T12:17:20.776Z,21.84
2019-02-06T12:18:20.760Z,21.88
2019-02-06T12:19:20.779Z,21.84
2019-02-06T12:20:20.746Z,21.88
2019-02-06T12:21:20.736Z,21.85
2019-02-06T12:22:20.719Z,21.88
2019-02-06T12:23:31.644Z,21.75
2019-02-06T12:24:21.724Z,21.85
2019-02-06T12:25:20.697Z,21.89
2019-02-06T12:26:20.682Z,21.96
2019-02-06T12:27:20.677Z,21.94
2019-02-06T12:28:20.666Z,21.96
2019-02-06T12:29:20.644Z,21.99
2019-02-06T12:30:20.669Z,21.97
2019-02-06T12:31:20.641Z,22.08
2019-02-06T12:32:20.620Z,22.06
2019-02-06T12:33:20.608Z,22.08
2019-02-06T12:34:20.602Z,22.01
2019-02-06T12:35:20.624Z,22.03
2019-02-06T12:36:20.582Z,22.10
2019-02-06T12:37:20.565Z,22.14
2019-02-06T12:38:20.555Z,22.04
2019-02-06T12:39:22.717Z,22.08
2019-02-06T12:40:21.952Z,22.01
2019-02-06T12:41:20.551Z,22.04
2019-02-06T12:42:20.515Z,22.04
2019-02-06T12:43:20.504Z,22.01
2019-02-06T12:44:20.494Z,21.92
2019-02-06T12:45:20.486Z,21.96
2019-02-06T12:46:20.489Z,21.92
2019-02-06T12:47:20.472Z,21.97
2019-02-06T12:48:20.580Z,22.00
2019-02-06T12:49:20.439Z,22.01
2019-02-06T12:50:20.441Z,21.99
2019-02-06T12:51:20.438Z,21.99
2019-02-06T12:52:20.427Z,22.04
2019-02-06T12:53:20.402Z,22.07
2019-02-06T12:54:20.393Z,22.00